sensor_id;sensor_type;location;lat;lon;timestamp;P1;durP1;ratioP1;P2;durP2;ratioP2
55409;SDS011;41279;43.546;16.426;2022-09-12T00:00:40;0.30;;;0.30;;
55409;SDS011;41279;43.546;16.426;2022-09-12T00:03:05;1.27;;;0.60;;
55409;SDS011;41279;43.546;16.426;2022-09-12T00:05:31;0.35;;;0.35;;
55409;SDS011;41279;43.546;16.426;2022-09-12T00:07:57;0.75;;;0.60;;
55409;SDS011;41279;43.546;16.426;2022-09-12T00:10:22;1.08;;;0.50;;
55409;SDS011;41279;43.546;16.426;2022-09-12T00:12:48;1.35;;;0.70;;
55409;SDS011;41279;43.546;16.426;2022-09-12T00:15:13;0.43;;;0.40;;
55409;SDS011;41279;43.546;16.426;2022-09-12T00:17:38;0.40;;;0.40;;
55409;SDS011;41279;43.546;16.426;2022-09-12T00:20:05;1.55;;;0.60;;
55409;SDS011;41279;43.546;16.426;2022-09-12T00:22:32;0.88;;;0.40;;
55409;SDS011;41279;43.546;16.426;2022-09-12T00:24:58;0.40;;;0.40;;
55409;SDS011;41279;43.546;16.426;2022-09-12T00:27:23;0.38;;;0.30;;
55409;SDS011;41279;43.546;16.426;2022-09-12T00:29:48;0.30;;;0.30;;
55409;SDS011;41279;43.546;16.426;2022-09-12T00:32:14;0.52;;;0.30;;
55409;SDS011;41279;43.546;16.426;2022-09-12T00:34:39;0.93;;;0.50;;
55409;SDS011;41279;43.546;16.426;2022-09-12T00:37:05;0.38;;;0.38;;
55409;SDS011;41279;43.546;16.426;2022-09-12T00:39:30;0.57;;;0.57;;
55409;SDS011;41279;43.546;16.426;2022-09-12T00:41:55;0.50;;;0.43;;
55409;SDS011;41279;43.546;16.426;2022-09-12T00:46:50;0.80;;;0.57;;
55409;SDS011;41279;43.546;16.426;2022-09-12T00:54:30;0.80;;;0.40;;
55409;SDS011;41279;43.546;16.426;2022-09-12T00:57:00;0.65;;;0.40;;
55409;SDS011;41279;43.546;16.426;2022-09-12T00:59:31;1.05;;;0.40;;
55409;SDS011;41279;43.546;16.426;2022-09-12T01:02:10;0.98;;;0.50;;
55409;SDS011;41279;43.546;16.426;2022-09-12T01:04:36;0.55;;;0.38;;
55409;SDS011;41279;43.546;16.426;2022-09-12T01:07:03;1.52;;;0.60;;
55409;SDS011;41279;43.546;16.426;2022-09-12T01:09:30;0.85;;;0.57;;
55409;SDS011;41279;43.546;16.426;2022-09-12T01:11:56;0.70;;;0.50;;
55409;SDS011;41279;43.546;16.426;2022-09-12T01:14:22;0.60;;;0.50;;
55409;SDS011;41279;43.546;16.426;2022-09-12T01:16:48;0.40;;;0.40;;
55409;SDS011;41279;43.546;16.426;2022-09-12T01:36:26;0.40;;;0.40;;
55409;SDS011;41279;43.546;16.426;2022-09-12T01:38:58;0.40;;;0.40;;
55409;SDS011;41279;43.546;16.426;2022-09-12T01:44:00;0.40;;;0.40;;
55409;SDS011;41279;43.546;16.426;2022-09-12T01:49:00;0.40;;;0.40;;
55409;SDS011;41279;43.546;16.426;2022-09-12T01:51:31;0.30;;;0.30;;
55409;SDS011;41279;43.546;16.426;2022-09-12T01:54:05;0.60;;;0.50;;
55409;SDS011;41279;43.546;16.426;2022-09-12T01:56:35;0.30;;;0.30;;
55409;SDS011;41279;43.546;16.426;2022-09-12T01:59:14;0.55;;;0.55;;
55409;SDS011;41279;43.546;16.426;2022-09-12T02:01:55;0.80;;;0.50;;
55409;SDS011;41279;43.546;16.426;2022-09-12T02:04:56;0.55;;;0.40;;
55409;SDS011;41279;43.546;16.426;2022-09-12T02:10:06;0.50;;;0.40;;
55409;SDS011;41279;43.546;16.426;2022-09-12T02:12:38;1.10;;;0.70;;
55409;SDS011;41279;43.546;16.426;2022-09-12T02:15:09;0.52;;;0.35;;
55409;SDS011;41279;43.546;16.426;2022-09-12T02:17:38;0.75;;;0.40;;
55409;SDS011;41279;43.546;16.426;2022-09-12T02:20:22;1.90;;;0.38;;
55409;SDS011;41279;43.546;16.426;2022-09-12T02:22:52;0.60;;;0.50;;
55409;SDS011;41279;43.546;16.426;2022-09-12T02:25:20;1.27;;;0.43;;
55409;SDS011;41279;43.546;16.426;2022-09-12T02:27:49;2.25;;;0.60;;
55409;SDS011;41279;43.546;16.426;2022-09-12T02:30:25;0.75;;;0.50;;
55409;SDS011;41279;43.546;16.426;2022-09-12T02:35:24;0.40;;;0.40;;
55409;SDS011;41279;43.546;16.426;2022-09-12T02:38:09;0.50;;;0.50;;
55409;SDS011;41279;43.546;16.426;2022-09-12T02:40:44;0.60;;;0.50;;
55409;SDS011;41279;43.546;16.426;2022-09-12T02:43:09;0.90;;;0.73;;
55409;SDS011;41279;43.546;16.426;2022-09-12T02:45:35;0.68;;;0.50;;
55409;SDS011;41279;43.546;16.426;2022-09-12T02:50:39;1.13;;;0.60;;
55409;SDS011;41279;43.546;16.426;2022-09-12T02:53:06;0.60;;;0.60;;
55409;SDS011;41279;43.546;16.426;2022-09-12T02:55:32;0.80;;;0.60;;
55409;SDS011;41279;43.546;16.426;2022-09-12T02:58:02;1.83;;;0.85;;
55409;SDS011;41279;43.546;16.426;2022-09-12T03:00:32;0.40;;;0.40;;
55409;SDS011;41279;43.546;16.426;2022-09-12T03:05:58;0.70;;;0.47;;
55409;SDS011;41279;43.546;16.426;2022-09-12T03:08:30;0.43;;;0.43;;
55409;SDS011;41279;43.546;16.426;2022-09-12T03:13:39;0.55;;;0.50;;
55409;SDS011;41279;43.546;16.426;2022-09-12T03:16:18;0.40;;;0.40;;
55409;SDS011;41279;43.546;16.426;2022-09-12T03:27:20;0.30;;;0.30;;
55409;SDS011;41279;43.546;16.426;2022-09-12T03:30:08;0.35;;;0.35;;
55409;SDS011;41279;43.546;16.426;2022-09-12T03:32:42;0.40;;;0.40;;
55409;SDS011;41279;43.546;16.426;2022-09-12T03:35:09;0.65;;;0.43;;
55409;SDS011;41279;43.546;16.426;2022-09-12T03:37:35;0.45;;;0.40;;
55409;SDS011;41279;43.546;16.426;2022-09-12T03:40:02;0.88;;;0.68;;
55409;SDS011;41279;43.546;16.426;2022-09-12T03:42:28;0.30;;;0.30;;
55409;SDS011;41279;43.546;16.426;2022-09-12T03:44:53;0.50;;;0.50;;
55409;SDS011;41279;43.546;16.426;2022-09-12T03:47:19;0.45;;;0.35;;
55409;SDS011;41279;43.546;16.426;2022-09-12T03:49:44;0.40;;;0.40;;
55409;SDS011;41279;43.546;16.426;2022-09-12T03:52:10;0.30;;;0.30;;
55409;SDS011;41279;43.546;16.426;2022-09-12T03:54:36;2.42;;;0.75;;
55409;SDS011;41279;43.546;16.426;2022-09-12T03:57:01;0.40;;;0.40;;
55409;SDS011;41279;43.546;16.426;2022-09-12T03:59:26;0.20;;;0.20;;
55409;SDS011;41279;43.546;16.426;2022-09-12T04:01:52;0.30;;;0.30;;
55409;SDS011;41279;43.546;16.426;2022-09-12T04:04:17;0.93;;;0.50;;
55409;SDS011;41279;43.546;16.426;2022-09-12T04:06:42;1.55;;;0.40;;
55409;SDS011;41279;43.546;16.426;2022-09-12T04:09:08;0.63;;;0.40;;
55409;SDS011;41279;43.546;16.426;2022-09-12T04:11:33;0.38;;;0.38;;
55409;SDS011;41279;43.546;16.426;2022-09-12T04:13:59;0.40;;;0.30;;
55409;SDS011;41279;43.546;16.426;2022-09-12T04:16:25;0.52;;;0.43;;
55409;SDS011;41279;43.546;16.426;2022-09-12T04:18:50;0.35;;;0.30;;
55409;SDS011;41279;43.546;16.426;2022-09-12T04:21:17;0.45;;;0.45;;
55409;SDS011;41279;43.546;16.426;2022-09-12T04:23:45;0.45;;;0.40;;
55409;SDS011;41279;43.546;16.426;2022-09-12T04:26:11;0.30;;;0.30;;
55409;SDS011;41279;43.546;16.426;2022-09-12T04:28:37;0.35;;;0.25;;
55409;SDS011;41279;43.546;16.426;2022-09-12T04:31:04;0.47;;;0.40;;
55409;SDS011;41279;43.546;16.426;2022-09-12T04:33:31;0.65;;;0.30;;
55409;SDS011;41279;43.546;16.426;2022-09-12T04:36:18;0.85;;;0.50;;
55409;SDS011;41279;43.546;16.426;2022-09-12T04:38:43;0.40;;;0.40;;
55409;SDS011;41279;43.546;16.426;2022-09-12T04:41:14;2.17;;;0.57;;
55409;SDS011;41279;43.546;16.426;2022-09-12T04:43:42;0.40;;;0.40;;
55409;SDS011;41279;43.546;16.426;2022-09-12T04:46:10;1.75;;;0.40;;
55409;SDS011;41279;43.546;16.426;2022-09-12T04:48:37;0.98;;;0.50;;
55409;SDS011;41279;43.546;16.426;2022-09-12T04:51:06;0.60;;;0.55;;
55409;SDS011;41279;43.546;16.426;2022-09-12T04:53:33;1.08;;;0.65;;
55409;SDS011;41279;43.546;16.426;2022-09-12T04:56:05;1.42;;;0.80;;
55409;SDS011;41279;43.546;16.426;2022-09-12T04:58:33;0.50;;;0.50;;
55409;SDS011;41279;43.546;16.426;2022-09-12T05:01:06;0.73;;;0.63;;
55409;SDS011;41279;43.546;16.426;2022-09-12T05:03:36;0.52;;;0.52;;
55409;SDS011;41279;43.546;16.426;2022-09-12T05:06:04;0.82;;;0.68;;
55409;SDS011;41279;43.546;16.426;2022-09-12T05:08:31;0.60;;;0.60;;
55409;SDS011;41279;43.546;16.426;2022-09-12T05:11:01;2.28;;;0.70;;
55409;SDS011;41279;43.546;16.426;2022-09-12T05:13:29;0.63;;;0.55;;
55409;SDS011;41279;43.546;16.426;2022-09-12T05:15:55;0.52;;;0.52;;
55409;SDS011;41279;43.546;16.426;2022-09-12T05:18:21;0.90;;;0.40;;
55409;SDS011;41279;43.546;16.426;2022-09-12T05:20:46;0.90;;;0.70;;
55409;SDS011;41279;43.546;16.426;2022-09-12T05:23:12;1.85;;;0.75;;
55409;SDS011;41279;43.546;16.426;2022-09-12T05:25:37;0.93;;;0.50;;
55409;SDS011;41279;43.546;16.426;2022-09-12T05:28:02;0.65;;;0.65;;
55409;SDS011;41279;43.546;16.426;2022-09-12T05:30:27;0.50;;;0.50;;
55409;SDS011;41279;43.546;16.426;2022-09-12T05:32:53;1.15;;;0.70;;
55409;SDS011;41279;43.546;16.426;2022-09-12T05:35:18;0.55;;;0.55;;
55409;SDS011;41279;43.546;16.426;2022-09-12T05:37:43;0.57;;;0.57;;
55409;SDS011;41279;43.546;16.426;2022-09-12T05:40:09;0.65;;;0.65;;
55409;SDS011;41279;43.546;16.426;2022-09-12T05:42:35;3.83;;;1.00;;
55409;SDS011;41279;43.546;16.426;2022-09-12T05:45:00;0.60;;;0.52;;
55409;SDS011;41279;43.546;16.426;2022-09-12T05:47:26;0.60;;;0.60;;
55409;SDS011;41279;43.546;16.426;2022-09-12T05:49:51;0.50;;;0.50;;
55409;SDS011;41279;43.546;16.426;2022-09-12T05:52:17;1.35;;;0.80;;
55409;SDS011;41279;43.546;16.426;2022-09-12T05:54:43;1.15;;;0.75;;
55409;SDS011;41279;43.546;16.426;2022-09-12T05:57:08;1.52;;;0.90;;
55409;SDS011;41279;43.546;16.426;2022-09-12T05:59:34;0.75;;;0.68;;
55409;SDS011;41279;43.546;16.426;2022-09-12T06:01:59;0.95;;;0.80;;
55409;SDS011;41279;43.546;16.426;2022-09-12T06:04:24;2.45;;;1.10;;
55409;SDS011;41279;43.546;16.426;2022-09-12T06:06:50;2.65;;;1.00;;
55409;SDS011;41279;43.546;16.426;2022-09-12T06:09:16;1.58;;;0.75;;
55409;SDS011;41279;43.546;16.426;2022-09-12T06:11:42;1.13;;;0.68;;
55409;SDS011;41279;43.546;16.426;2022-09-12T06:14:09;0.82;;;0.68;;
55409;SDS011;41279;43.546;16.426;2022-09-12T06:16:36;2.58;;;0.80;;
55409;SDS011;41279;43.546;16.426;2022-09-12T06:19:13;1.20;;;0.82;;
55409;SDS011;41279;43.546;16.426;2022-09-12T06:21:40;1.10;;;0.80;;
55409;SDS011;41279;43.546;16.426;2022-09-12T06:24:06;1.15;;;0.60;;
55409;SDS011;41279;43.546;16.426;2022-09-12T06:26:31;2.70;;;1.40;;
55409;SDS011;41279;43.546;16.426;2022-09-12T06:28:58;1.55;;;0.98;;
55409;SDS011;41279;43.546;16.426;2022-09-12T06:31:28;1.45;;;0.70;;
55409;SDS011;41279;43.546;16.426;2022-09-12T06:33:58;2.05;;;0.93;;
55409;SDS011;41279;43.546;16.426;2022-09-12T06:36:25;0.98;;;0.80;;
55409;SDS011;41279;43.546;16.426;2022-09-12T06:38:53;0.90;;;0.70;;
55409;SDS011;41279;43.546;16.426;2022-09-12T06:41:21;2.72;;;1.10;;
55409;SDS011;41279;43.546;16.426;2022-09-12T06:43:47;1.33;;;0.77;;
55409;SDS011;41279;43.546;16.426;2022-09-12T06:46:12;0.95;;;0.85;;
55409;SDS011;41279;43.546;16.426;2022-09-12T06:48:40;1.40;;;0.75;;
55409;SDS011;41279;43.546;16.426;2022-09-12T06:51:08;2.05;;;1.10;;
55409;SDS011;41279;43.546;16.426;2022-09-12T06:53:37;1.75;;;1.00;;
55409;SDS011;41279;43.546;16.426;2022-09-12T06:56:04;1.95;;;0.70;;
55409;SDS011;41279;43.546;16.426;2022-09-12T06:58:33;5.25;;;0.95;;
55409;SDS011;41279;43.546;16.426;2022-09-12T07:01:10;1.65;;;0.90;;
55409;SDS011;41279;43.546;16.426;2022-09-12T07:03:37;0.93;;;0.90;;
55409;SDS011;41279;43.546;16.426;2022-09-12T07:06:03;1.55;;;0.85;;
55409;SDS011;41279;43.546;16.426;2022-09-12T07:08:30;1.30;;;0.90;;
55409;SDS011;41279;43.546;16.426;2022-09-12T07:10:56;2.42;;;1.30;;
55409;SDS011;41279;43.546;16.426;2022-09-12T07:13:24;1.88;;;0.98;;
55409;SDS011;41279;43.546;16.426;2022-09-12T07:15:49;1.88;;;1.00;;
55409;SDS011;41279;43.546;16.426;2022-09-12T07:18:15;2.08;;;0.80;;
55409;SDS011;41279;43.546;16.426;2022-09-12T07:20:41;1.80;;;0.77;;
55409;SDS011;41279;43.546;16.426;2022-09-12T07:23:07;1.27;;;0.90;;
55409;SDS011;41279;43.546;16.426;2022-09-12T07:25:32;0.65;;;0.65;;
55409;SDS011;41279;43.546;16.426;2022-09-12T07:27:58;1.90;;;1.00;;
55409;SDS011;41279;43.546;16.426;2022-09-12T07:30:23;1.65;;;0.90;;
55409;SDS011;41279;43.546;16.426;2022-09-12T07:32:52;1.17;;;0.80;;
55409;SDS011;41279;43.546;16.426;2022-09-12T07:35:18;1.23;;;0.90;;
55409;SDS011;41279;43.546;16.426;2022-09-12T07:37:44;1.73;;;1.00;;
55409;SDS011;41279;43.546;16.426;2022-09-12T07:40:10;1.33;;;0.90;;
55409;SDS011;41279;43.546;16.426;2022-09-12T07:42:35;1.38;;;0.82;;
55409;SDS011;41279;43.546;16.426;2022-09-12T07:45:00;1.88;;;1.10;;
55409;SDS011;41279;43.546;16.426;2022-09-12T07:47:26;1.50;;;1.00;;
55409;SDS011;41279;43.546;16.426;2022-09-12T07:49:51;1.55;;;0.80;;
55409;SDS011;41279;43.546;16.426;2022-09-12T07:52:17;7.28;;;1.20;;
55409;SDS011;41279;43.546;16.426;2022-09-12T07:54:42;1.60;;;1.02;;
55409;SDS011;41279;43.546;16.426;2022-09-12T07:57:08;1.35;;;0.82;;
55409;SDS011;41279;43.546;16.426;2022-09-12T07:59:33;1.88;;;1.10;;
55409;SDS011;41279;43.546;16.426;2022-09-12T08:01:59;1.80;;;0.98;;
55409;SDS011;41279;43.546;16.426;2022-09-12T08:04:24;2.40;;;0.95;;
55409;SDS011;41279;43.546;16.426;2022-09-12T08:06:49;1.15;;;0.88;;
55409;SDS011;41279;43.546;16.426;2022-09-12T08:09:15;2.30;;;1.20;;
55409;SDS011;41279;43.546;16.426;2022-09-12T08:11:41;1.45;;;0.93;;
55409;SDS011;41279;43.546;16.426;2022-09-12T08:14:07;1.55;;;1.10;;
55409;SDS011;41279;43.546;16.426;2022-09-12T08:16:33;2.03;;;1.00;;
55409;SDS011;41279;43.546;16.426;2022-09-12T08:18:59;1.25;;;1.00;;
55409;SDS011;41279;43.546;16.426;2022-09-12T08:24:02;2.30;;;1.20;;
55409;SDS011;41279;43.546;16.426;2022-09-12T08:26:29;1.90;;;1.10;;
55409;SDS011;41279;43.546;16.426;2022-09-12T08:28:55;1.80;;;1.10;;
55409;SDS011;41279;43.546;16.426;2022-09-12T08:31:21;2.20;;;1.23;;
55409;SDS011;41279;43.546;16.426;2022-09-12T08:33:48;2.95;;;1.00;;
55409;SDS011;41279;43.546;16.426;2022-09-12T08:36:15;1.08;;;0.80;;
55409;SDS011;41279;43.546;16.426;2022-09-12T08:38:45;1.55;;;1.10;;
55409;SDS011;41279;43.546;16.426;2022-09-12T08:46:26;1.52;;;1.00;;
55409;SDS011;41279;43.546;16.426;2022-09-12T08:49:00;1.40;;;0.93;;
55409;SDS011;41279;43.546;16.426;2022-09-12T08:51:27;1.00;;;0.80;;
55409;SDS011;41279;43.546;16.426;2022-09-12T08:53:58;1.92;;;1.08;;
55409;SDS011;41279;43.546;16.426;2022-09-12T08:56:26;3.13;;;1.00;;
55409;SDS011;41279;43.546;16.426;2022-09-12T08:58:55;1.70;;;1.02;;
55409;SDS011;41279;43.546;16.426;2022-09-12T09:01:23;1.70;;;1.08;;
55409;SDS011;41279;43.546;16.426;2022-09-12T09:12:51;3.20;;;1.15;;
55409;SDS011;41279;43.546;16.426;2022-09-12T09:20:48;1.75;;;1.17;;
55409;SDS011;41279;43.546;16.426;2022-09-12T09:23:19;1.65;;;0.98;;
55409;SDS011;41279;43.546;16.426;2022-09-12T09:25:57;0.70;;;0.70;;
55409;SDS011;41279;43.546;16.426;2022-09-12T09:31:20;1.83;;;1.20;;
55409;SDS011;41279;43.546;16.426;2022-09-12T09:33:48;1.42;;;1.20;;
55409;SDS011;41279;43.546;16.426;2022-09-12T09:43:55;1.45;;;1.00;;
55409;SDS011;41279;43.546;16.426;2022-09-12T09:46:22;1.25;;;1.05;;
55409;SDS011;41279;43.546;16.426;2022-09-12T09:48:48;1.15;;;0.90;;
55409;SDS011;41279;43.546;16.426;2022-09-12T09:51:21;1.77;;;1.00;;
55409;SDS011;41279;43.546;16.426;2022-09-12T09:53:57;2.30;;;1.30;;
55409;SDS011;41279;43.546;16.426;2022-09-12T09:59:44;1.95;;;1.20;;
55409;SDS011;41279;43.546;16.426;2022-09-12T10:01:55;1.63;;;1.20;;
55409;SDS011;41279;43.546;16.426;2022-09-12T10:04:29;1.58;;;1.10;;
55409;SDS011;41279;43.546;16.426;2022-09-12T10:06:58;1.48;;;1.10;;
55409;SDS011;41279;43.546;16.426;2022-09-12T10:09:32;1.85;;;0.93;;
55409;SDS011;41279;43.546;16.426;2022-09-12T10:12:00;2.08;;;1.20;;
55409;SDS011;41279;43.546;16.426;2022-09-12T10:17:30;1.20;;;0.85;;
55409;SDS011;41279;43.546;16.426;2022-09-12T10:20:14;1.92;;;1.30;;
55409;SDS011;41279;43.546;16.426;2022-09-12T10:22:59;3.03;;;1.10;;
55409;SDS011;41279;43.546;16.426;2022-09-12T10:25:26;1.30;;;1.20;;
55409;SDS011;41279;43.546;16.426;2022-09-12T10:27:53;1.73;;;1.00;;
55409;SDS011;41279;43.546;16.426;2022-09-12T10:30:22;1.80;;;1.00;;
55409;SDS011;41279;43.546;16.426;2022-09-12T10:32:52;1.00;;;0.90;;
55409;SDS011;41279;43.546;16.426;2022-09-12T10:35:40;2.05;;;0.90;;
55409;SDS011;41279;43.546;16.426;2022-09-12T10:38:16;1.42;;;0.90;;
55409;SDS011;41279;43.546;16.426;2022-09-12T10:40:54;0.90;;;0.82;;
55409;SDS011;41279;43.546;16.426;2022-09-12T10:45:57;1.38;;;0.73;;
55409;SDS011;41279;43.546;16.426;2022-09-12T10:48:44;1.05;;;0.80;;
55409;SDS011;41279;43.546;16.426;2022-09-12T10:51:14;1.13;;;0.90;;
55409;SDS011;41279;43.546;16.426;2022-09-12T10:53:40;2.92;;;0.80;;
55409;SDS011;41279;43.546;16.426;2022-09-12T10:56:15;1.20;;;0.90;;
55409;SDS011;41279;43.546;16.426;2022-09-12T11:02:26;2.17;;;0.98;;
55409;SDS011;41279;43.546;16.426;2022-09-12T11:05:10;1.10;;;0.80;;
55409;SDS011;41279;43.546;16.426;2022-09-12T11:07:48;1.48;;;0.90;;
55409;SDS011;41279;43.546;16.426;2022-09-12T11:17:59;1.20;;;0.82;;
55409;SDS011;41279;43.546;16.426;2022-09-12T11:26:21;1.17;;;0.80;;
55409;SDS011;41279;43.546;16.426;2022-09-12T11:29:05;3.33;;;1.80;;
55409;SDS011;41279;43.546;16.426;2022-09-12T11:34:46;1.80;;;0.90;;
55409;SDS011;41279;43.546;16.426;2022-09-12T11:42:46;1.52;;;1.00;;
55409;SDS011;41279;43.546;16.426;2022-09-12T11:45:16;1.92;;;1.02;;
55409;SDS011;41279;43.546;16.426;2022-09-12T11:47:51;2.58;;;1.30;;
55409;SDS011;41279;43.546;16.426;2022-09-12T11:50:26;1.35;;;1.02;;
55409;SDS011;41279;43.546;16.426;2022-09-12T11:53:11;3.67;;;1.45;;
55409;SDS011;41279;43.546;16.426;2022-09-12T11:58:45;1.83;;;1.13;;
55409;SDS011;41279;43.546;16.426;2022-09-12T12:01:17;2.88;;;1.20;;
55409;SDS011;41279;43.546;16.426;2022-09-12T12:03:47;1.10;;;0.90;;
55409;SDS011;41279;43.546;16.426;2022-09-12T12:08:43;1.70;;;0.93;;
55409;SDS011;41279;43.546;16.426;2022-09-12T12:11:11;1.77;;;1.08;;
55409;SDS011;41279;43.546;16.426;2022-09-12T12:16:42;1.48;;;1.08;;
55409;SDS011;41279;43.546;16.426;2022-09-12T12:21:40;1.35;;;1.02;;
55409;SDS011;41279;43.546;16.426;2022-09-12T12:24:22;1.17;;;1.00;;
55409;SDS011;41279;43.546;16.426;2022-09-12T12:36:56;2.13;;;1.20;;
55409;SDS011;41279;43.546;16.426;2022-09-12T12:41:58;1.50;;;0.90;;
55409;SDS011;41279;43.546;16.426;2022-09-12T12:49:42;2.28;;;1.10;;
55409;SDS011;41279;43.546;16.426;2022-09-12T12:52:18;1.20;;;1.10;;
55409;SDS011;41279;43.546;16.426;2022-09-12T12:57:17;1.83;;;1.10;;
55409;SDS011;41279;43.546;16.426;2022-09-12T12:59:54;1.17;;;0.80;;
55409;SDS011;41279;43.546;16.426;2022-09-12T13:04:55;0.80;;;0.80;;
55409;SDS011;41279;43.546;16.426;2022-09-12T13:07:28;1.05;;;0.80;;
55409;SDS011;41279;43.546;16.426;2022-09-12T13:12:25;1.50;;;0.80;;
55409;SDS011;41279;43.546;16.426;2022-09-12T13:14:55;2.55;;;0.90;;
55409;SDS011;41279;43.546;16.426;2022-09-12T13:17:30;1.48;;;1.10;;
55409;SDS011;41279;43.546;16.426;2022-09-12T13:20:06;1.33;;;1.00;;
55409;SDS011;41279;43.546;16.426;2022-09-12T13:22:39;2.70;;;1.10;;
55409;SDS011;41279;43.546;16.426;2022-09-12T13:27:57;2.03;;;1.17;;
55409;SDS011;41279;43.546;16.426;2022-09-12T13:30:29;2.67;;;1.33;;
55409;SDS011;41279;43.546;16.426;2022-09-12T13:32:57;0.95;;;0.93;;
55409;SDS011;41279;43.546;16.426;2022-09-12T13:38:43;1.30;;;1.02;;
55409;SDS011;41279;43.546;16.426;2022-09-12T13:43:51;2.35;;;1.02;;
55409;SDS011;41279;43.546;16.426;2022-09-12T13:46:17;1.30;;;0.90;;
55409;SDS011;41279;43.546;16.426;2022-09-12T13:48:54;1.90;;;1.13;;
55409;SDS011;41279;43.546;16.426;2022-09-12T13:51:21;1.92;;;1.00;;
55409;SDS011;41279;43.546;16.426;2022-09-12T13:53:54;2.08;;;1.20;;
55409;SDS011;41279;43.546;16.426;2022-09-12T13:56:24;1.45;;;0.90;;
55409;SDS011;41279;43.546;16.426;2022-09-12T13:58:55;1.15;;;1.00;;
55409;SDS011;41279;43.546;16.426;2022-09-12T14:04:17;1.73;;;0.80;;
55409;SDS011;41279;43.546;16.426;2022-09-12T14:09:38;0.95;;;0.80;;
55409;SDS011;41279;43.546;16.426;2022-09-12T14:15:18;1.30;;;0.88;;
55409;SDS011;41279;43.546;16.426;2022-09-12T14:17:49;1.35;;;1.00;;
55409;SDS011;41279;43.546;16.426;2022-09-12T14:20:25;2.50;;;1.20;;
55409;SDS011;41279;43.546;16.426;2022-09-12T14:22:58;1.95;;;1.20;;
55409;SDS011;41279;43.546;16.426;2022-09-12T14:25:33;1.83;;;1.08;;
55409;SDS011;41279;43.546;16.426;2022-09-12T14:28:02;1.10;;;1.00;;
55409;SDS011;41279;43.546;16.426;2022-09-12T14:30:30;2.00;;;1.00;;
55409;SDS011;41279;43.546;16.426;2022-09-12T14:33:02;2.08;;;0.98;;
55409;SDS011;41279;43.546;16.426;2022-09-12T14:35:28;1.20;;;0.85;;
55409;SDS011;41279;43.546;16.426;2022-09-12T14:37:53;1.63;;;0.88;;
55409;SDS011;41279;43.546;16.426;2022-09-12T14:40:20;2.78;;;1.00;;
55409;SDS011;41279;43.546;16.426;2022-09-12T14:42:47;1.95;;;1.00;;
55409;SDS011;41279;43.546;16.426;2022-09-12T14:45:23;1.77;;;1.10;;
55409;SDS011;41279;43.546;16.426;2022-09-12T14:47:52;1.20;;;0.80;;
55409;SDS011;41279;43.546;16.426;2022-09-12T14:50:22;2.30;;;0.90;;
55409;SDS011;41279;43.546;16.426;2022-09-12T14:55:44;2.15;;;1.00;;
55409;SDS011;41279;43.546;16.426;2022-09-12T15:01:01;2.25;;;0.95;;
55409;SDS011;41279;43.546;16.426;2022-09-12T15:06:19;1.15;;;0.80;;
55409;SDS011;41279;43.546;16.426;2022-09-12T15:08:44;1.90;;;1.20;;
55409;SDS011;41279;43.546;16.426;2022-09-12T15:11:10;3.42;;;1.02;;
55409;SDS011;41279;43.546;16.426;2022-09-12T15:13:39;2.38;;;0.90;;
55409;SDS011;41279;43.546;16.426;2022-09-12T15:16:06;2.60;;;0.88;;
55409;SDS011;41279;43.546;16.426;2022-09-12T15:18:40;2.10;;;1.00;;
55409;SDS011;41279;43.546;16.426;2022-09-12T15:21:06;2.28;;;1.10;;
55409;SDS011;41279;43.546;16.426;2022-09-12T15:26:15;4.05;;;1.10;;
55409;SDS011;41279;43.546;16.426;2022-09-12T15:28:42;2.25;;;1.10;;
55409;SDS011;41279;43.546;16.426;2022-09-12T15:33:39;2.38;;;1.40;;
55409;SDS011;41279;43.546;16.426;2022-09-12T15:36:10;3.42;;;1.40;;
55409;SDS011;41279;43.546;16.426;2022-09-12T15:38:38;2.35;;;1.20;;
55409;SDS011;41279;43.546;16.426;2022-09-12T15:41:07;2.45;;;1.17;;
55409;SDS011;41279;43.546;16.426;2022-09-12T15:43:44;6.95;;;1.50;;
55409;SDS011;41279;43.546;16.426;2022-09-12T15:46:10;2.85;;;1.20;;
55409;SDS011;41279;43.546;16.426;2022-09-12T15:48:37;4.07;;;1.25;;
55409;SDS011;41279;43.546;16.426;2022-09-12T15:51:03;4.05;;;1.08;;
55409;SDS011;41279;43.546;16.426;2022-09-12T15:53:29;2.35;;;1.13;;
55409;SDS011;41279;43.546;16.426;2022-09-12T15:55:55;3.95;;;1.48;;
55409;SDS011;41279;43.546;16.426;2022-09-12T15:58:21;1.95;;;0.85;;
55409;SDS011;41279;43.546;16.426;2022-09-12T16:00:46;2.22;;;1.00;;
55409;SDS011;41279;43.546;16.426;2022-09-12T16:03:21;3.03;;;0.98;;
55409;SDS011;41279;43.546;16.426;2022-09-12T16:05:49;1.83;;;0.95;;
55409;SDS011;41279;43.546;16.426;2022-09-12T16:08:20;2.40;;;1.20;;
55409;SDS011;41279;43.546;16.426;2022-09-12T16:10:45;4.30;;;1.58;;
55409;SDS011;41279;43.546;16.426;2022-09-12T16:13:13;2.38;;;0.98;;
55409;SDS011;41279;43.546;16.426;2022-09-12T16:15:38;2.92;;;1.27;;
55409;SDS011;41279;43.546;16.426;2022-09-12T16:18:04;3.60;;;1.33;;
55409;SDS011;41279;43.546;16.426;2022-09-12T16:20:30;2.47;;;1.30;;
55409;SDS011;41279;43.546;16.426;2022-09-12T16:22:55;2.65;;;1.10;;
55409;SDS011;41279;43.546;16.426;2022-09-12T16:25:21;2.28;;;1.10;;
55409;SDS011;41279;43.546;16.426;2022-09-12T16:27:46;1.80;;;1.10;;
55409;SDS011;41279;43.546;16.426;2022-09-12T16:30:12;2.30;;;0.90;;
55409;SDS011;41279;43.546;16.426;2022-09-12T16:32:37;1.42;;;1.10;;
55409;SDS011;41279;43.546;16.426;2022-09-12T16:35:03;1.42;;;0.93;;
55409;SDS011;41279;43.546;16.426;2022-09-12T16:37:30;1.98;;;1.00;;
55409;SDS011;41279;43.546;16.426;2022-09-12T16:39:58;3.17;;;1.00;;
55409;SDS011;41279;43.546;16.426;2022-09-12T16:42:23;3.28;;;1.10;;
55409;SDS011;41279;43.546;16.426;2022-09-12T16:44:49;1.80;;;1.13;;
55409;SDS011;41279;43.546;16.426;2022-09-12T16:47:14;2.45;;;1.10;;
55409;SDS011;41279;43.546;16.426;2022-09-12T16:49:39;4.75;;;1.30;;
55409;SDS011;41279;43.546;16.426;2022-09-12T16:52:05;2.20;;;1.27;;
55409;SDS011;41279;43.546;16.426;2022-09-12T16:54:30;1.80;;;1.20;;
55409;SDS011;41279;43.546;16.426;2022-09-12T16:56:56;3.28;;;1.42;;
55409;SDS011;41279;43.546;16.426;2022-09-12T16:59:21;2.45;;;1.40;;
55409;SDS011;41279;43.546;16.426;2022-09-12T17:01:47;5.50;;;2.38;;
55409;SDS011;41279;43.546;16.426;2022-09-12T17:04:12;5.00;;;1.80;;
55409;SDS011;41279;43.546;16.426;2022-09-12T17:06:37;3.75;;;1.70;;
55409;SDS011;41279;43.546;16.426;2022-09-12T17:09:03;2.80;;;1.60;;
55409;SDS011;41279;43.546;16.426;2022-09-12T17:11:30;4.30;;;2.22;;
55409;SDS011;41279;43.546;16.426;2022-09-12T17:13:58;2.28;;;1.40;;
55409;SDS011;41279;43.546;16.426;2022-09-12T17:16:25;4.18;;;1.70;;
55409;SDS011;41279;43.546;16.426;2022-09-12T17:18:51;2.92;;;1.60;;
55409;SDS011;41279;43.546;16.426;2022-09-12T17:21:17;4.75;;;1.60;;
55409;SDS011;41279;43.546;16.426;2022-09-12T17:23:44;5.20;;;1.75;;
55409;SDS011;41279;43.546;16.426;2022-09-12T17:26:10;4.18;;;1.70;;
55409;SDS011;41279;43.546;16.426;2022-09-12T17:28:36;5.18;;;1.90;;
55409;SDS011;41279;43.546;16.426;2022-09-12T17:31:03;7.85;;;2.10;;
55409;SDS011;41279;43.546;16.426;2022-09-12T17:33:33;5.97;;;1.55;;
55409;SDS011;41279;43.546;16.426;2022-09-12T17:36:02;3.90;;;1.08;;
55409;SDS011;41279;43.546;16.426;2022-09-12T17:38:33;2.25;;;1.20;;
55409;SDS011;41279;43.546;16.426;2022-09-12T17:41:06;3.00;;;1.60;;
55409;SDS011;41279;43.546;16.426;2022-09-12T17:43:42;8.98;;;4.55;;
55409;SDS011;41279;43.546;16.426;2022-09-12T17:46:08;6.15;;;2.63;;
55409;SDS011;41279;43.546;16.426;2022-09-12T17:48:34;12.10;;;5.15;;